sensor_id;sensor_type;location;lat;lon;timestamp;pressure;altitude;pressure_sealevel;temperature;humidity
46267;BME280;31998;48.798;15.066;2023-02-13T00:00:12;97721.44;;;1.84;100.00
46267;BME280;31998;48.798;15.066;2023-02-13T00:02:38;97716.13;;;1.84;100.00
46267;BME280;31998;48.798;15.066;2023-02-13T00:05:04;97714.84;;;1.80;100.00
46267;BME280;31998;48.798;15.066;2023-02-13T00:07:29;97708.25;;;1.76;100.00
46267;BME280;31998;48.798;15.066;2023-02-13T00:09:54;97720.16;;;1.80;100.00
46267;BME280;31998;48.798;15.066;2023-02-13T00:12:20;97712.81;;;1.68;100.00
46267;BME280;31998;48.798;15.066;2023-02-13T00:14:45;97702.50;;;1.73;100.00
46267;BME280;31998;48.798;15.066;2023-02-13T00:17:11;97716.88;;;1.78;100.00
46267;BME280;31998;48.798;15.066;2023-02-13T00:19:36;97724.19;;;1.76;100.00
46267;BME280;31998;48.798;15.066;2023-02-13T00:22:01;97726.19;;;1.74;100.00
46267;BME280;31998;48.798;15.066;2023-02-13T00:24:27;97702.50;;;1.73;100.00
46267;BME280;31998;48.798;15.066;2023-02-13T00:26:52;97711.91;;;1.75;100.00
46267;BME280;31998;48.798;15.066;2023-02-13T00:29:18;97719.78;;;1.83;100.00
46267;BME280;31998;48.798;15.066;2023-02-13T00:31:43;97707.88;;;1.79;100.00
46267;BME280;31998;48.798;15.066;2023-02-13T00:34:09;97696.78;;;1.76;100.00
46267;BME280;31998;48.798;15.066;2023-02-13T00:36:34;97705.78;;;1.75;100.00
46267;BME280;31998;48.798;15.066;2023-02-13T00:39:00;97721.06;;;1.73;100.00
46267;BME280;31998;48.798;15.066;2023-02-13T00:41:25;97710.25;;;1.74;100.00
46267;BME280;31998;48.798;15.066;2023-02-13T00:43:50;97714.41;;;1.77;100.00
46267;BME280;31998;48.798;15.066;2023-02-13T00:46:16;97712.38;;;1.79;100.00
46267;BME280;31998;48.798;15.066;2023-02-13T00:48:42;97728.00;;;1.88;100.00
46267;BME280;31998;48.798;15.066;2023-02-13T00:51:07;97734.13;;;1.89;100.00
46267;BME280;31998;48.798;15.066;2023-02-13T00:53:34;97737.38;;;1.84;100.00
46267;BME280;31998;48.798;15.066;2023-02-13T00:56:01;97726.28;;;1.81;100.00
46267;BME280;31998;48.798;15.066;2023-02-13T00:58:26;97728.75;;;1.82;100.00
46267;BME280;31998;48.798;15.066;2023-02-13T01:00:53;97739.00;;;1.85;100.00
46267;BME280;31998;48.798;15.066;2023-02-13T01:03:19;97750.91;;;1.89;100.00
46267;BME280;31998;48.798;15.066;2023-02-13T01:05:46;97723.81;;;1.79;100.00
46267;BME280;31998;48.798;15.066;2023-02-13T01:08:12;97720.06;;;1.74;100.00
46267;BME280;31998;48.798;15.066;2023-02-13T01:10:39;97735.06;;;1.81;100.00
46267;BME280;31998;48.798;15.066;2023-02-13T01:13:05;97700.66;;;1.58;100.00
46267;BME280;31998;48.798;15.066;2023-02-13T01:15:31;97729.59;;;1.83;100.00
46267;BME280;31998;48.798;15.066;2023-02-13T01:17:57;97710.91;;;1.76;100.00
46267;BME280;31998;48.798;15.066;2023-02-13T01:20:23;97711.91;;;1.75;100.00
46267;BME280;31998;48.798;15.066;2023-02-13T01:22:50;97698.38;;;1.70;100.00
46267;BME280;31998;48.798;15.066;2023-02-13T01:25:15;97693.06;;;1.70;100.00
46267;BME280;31998;48.798;15.066;2023-02-13T01:27:41;97703.78;;;1.77;100.00
46267;BME280;31998;48.798;15.066;2023-02-13T01:30:07;97697.28;;;1.79;100.00
46267;BME280;31998;48.798;15.066;2023-02-13T01:32:40;97710.44;;;1.87;100.00
46267;BME280;31998;48.798;15.066;2023-02-13T01:35:07;97708.44;;;1.89;100.00
46267;BME280;31998;48.798;15.066;2023-02-13T01:37:32;97703.47;;;1.86;100.00
46267;BME280;31998;48.798;15.066;2023-02-13T01:39:58;97648.53;;;1.51;100.00
46267;BME280;31998;48.798;15.066;2023-02-13T01:42:29;97709.19;;;1.83;100.00
46267;BME280;31998;48.798;15.066;2023-02-13T01:44:58;97703.78;;;1.77;100.00
46267;BME280;31998;48.798;15.066;2023-02-13T01:47:41;97705.50;;;1.84;100.00
46267;BME280;31998;48.798;15.066;2023-02-13T01:52:43;97684.00;;;1.79;100.00
46267;BME280;31998;48.798;15.066;2023-02-13T01:55:10;97681.88;;;1.75;100.00
46267;BME280;31998;48.798;15.066;2023-02-13T01:57:39;97687.03;;;1.76;100.00
46267;BME280;31998;48.798;15.066;2023-02-13T02:00:12;97699.72;;;1.81;100.00
46267;BME280;31998;48.798;15.066;2023-02-13T02:02:44;97700.56;;;1.81;100.00
46267;BME280;31998;48.798;15.066;2023-02-13T02:05:12;97693.59;;;1.80;100.00
46267;BME280;31998;48.798;15.066;2023-02-13T02:07:40;97693.69;;;1.87;100.00
46267;BME280;31998;48.798;15.066;2023-02-13T02:10:08;97688.66;;;1.92;100.00
46267;BME280;31998;48.798;15.066;2023-02-13T02:12:41;97645.38;;;1.62;100.00
46267;BME280;31998;48.798;15.066;2023-02-13T02:15:08;97684.53;;;1.89;100.00
46267;BME280;31998;48.798;15.066;2023-02-13T02:17:33;97686.81;;;1.93;100.00
46267;BME280;31998;48.798;15.066;2023-02-13T02:20:27;97684.16;;;1.93;100.00
46267;BME280;31998;48.798;15.066;2023-02-13T02:23:23;97672.25;;;1.88;100.00
46267;BME280;31998;48.798;15.066;2023-02-13T02:31:45;97683.88;;;1.87;100.00
46267;BME280;31998;48.798;15.066;2023-02-13T02:34:51;97683.69;;;1.89;100.00
46267;BME280;31998;48.798;15.066;2023-02-13T02:40:11;97664.84;;;1.69;100.00
46267;BME280;31998;48.798;15.066;2023-02-13T02:42:50;97690.22;;;1.86;100.00
46267;BME280;31998;48.798;15.066;2023-02-13T02:45:43;97674.81;;;1.82;100.00
46267;BME280;31998;48.798;15.066;2023-02-13T02:48:31;97674.81;;;1.82;100.00
46267;BME280;31998;48.798;15.066;2023-02-13T02:54:27;97679.16;;;1.83;100.00
46267;BME280;31998;48.798;15.066;2023-02-13T02:57:19;97675.03;;;1.80;100.00
46267;BME280;31998;48.798;15.066;2023-02-13T02:59:47;97676.50;;;1.83;100.00
46267;BME280;31998;48.798;15.066;2023-02-13T03:02:32;97674.00;;;1.81;100.00
46267;BME280;31998;48.798;15.066;2023-02-13T03:05:21;97675.66;;;1.82;100.00
46267;BME280;31998;48.798;15.066;2023-02-13T03:08:08;97686.34;;;1.89;100.00
46267;BME280;31998;48.798;15.066;2023-02-13T03:10:35;97685.38;;;1.90;100.00
46267;BME280;31998;48.798;15.066;2023-02-13T03:16:02;97684.81;;;1.80;100.00
46267;BME280;31998;48.798;15.066;2023-02-13T03:18:51;97690.50;;;1.77;100.00
46267;BME280;31998;48.798;15.066;2023-02-13T03:22:20;97689.84;;;1.75;100.00
46267;BME280;31998;48.798;15.066;2023-02-13T03:25:51;97695.25;;;1.81;100.00
46267;BME280;31998;48.798;15.066;2023-02-13T03:28:21;97697.72;;;1.83;100.00
46267;BME280;31998;48.798;15.066;2023-02-13T03:34:34;97677.03;;;1.78;100.00
46267;BME280;31998;48.798;15.066;2023-02-13T03:37:26;97695.06;;;1.83;100.00
46267;BME280;31998;48.798;15.066;2023-02-13T03:43:12;97693.50;;;1.88;100.00
46267;BME280;31998;48.798;15.066;2023-02-13T03:45:43;97664.78;;;1.77;100.00
46267;BME280;31998;48.798;15.066;2023-02-13T03:48:33;97669.81;;;1.72;100.00
46267;BME280;31998;48.798;15.066;2023-02-13T03:51:23;97669.00;;;1.72;100.00
46267;BME280;31998;48.798;15.066;2023-02-13T03:53:55;97624.38;;;1.46;100.00
46267;BME280;31998;48.798;15.066;2023-02-13T03:56:22;97690.00;;;1.88;100.00
46267;BME280;31998;48.798;15.066;2023-02-13T03:59:09;97676.41;;;1.76;100.00
46267;BME280;31998;48.798;15.066;2023-02-13T04:01:47;97680.94;;;1.82;100.00
46267;BME280;31998;48.798;15.066;2023-02-13T04:04:48;97685.44;;;1.82;100.00
46267;BME280;31998;48.798;15.066;2023-02-13T04:07:14;97686.72;;;1.86;100.00
46267;BME280;31998;48.798;15.066;2023-02-13T04:09:54;97694.06;;;1.84;100.00
46267;BME280;31998;48.798;15.066;2023-02-13T04:12:26;97689.56;;;1.84;100.00
46267;BME280;31998;48.798;15.066;2023-02-13T04:15:01;97643.28;;;1.57;100.00
46267;BME280;31998;48.798;15.066;2023-02-13T04:17:36;97612.84;;;1.39;100.00
46267;BME280;31998;48.798;15.066;2023-02-13T04:20:04;97571.50;;;1.15;100.00
46267;BME280;31998;48.798;15.066;2023-02-13T04:22:30;97682.63;;;1.83;100.00
46267;BME280;31998;48.798;15.066;2023-02-13T04:24:55;97621.72;;;1.46;100.00
46267;BME280;31998;48.798;15.066;2023-02-13T04:27:24;97544.38;;;0.98;100.00
46267;BME280;31998;48.798;15.066;2023-02-13T04:29:50;97677.31;;;1.83;100.00
46267;BME280;31998;48.798;15.066;2023-02-13T04:32:15;97667.78;;;1.74;100.00
46267;BME280;31998;48.798;15.066;2023-02-13T04:34:41;97616.31;;;1.39;100.00
46267;BME280;31998;48.798;15.066;2023-02-13T04:37:07;97678.69;;;1.79;100.00
46267;BME280;31998;48.798;15.066;2023-02-13T04:39:33;97661.56;;;1.67;100.00
46267;BME280;31998;48.798;15.066;2023-02-13T04:41:58;97609.28;;;1.31;100.00
46267;BME280;31998;48.798;15.066;2023-02-13T04:44:24;97554.59;;;1.01;100.00
46267;BME280;31998;48.798;15.066;2023-02-13T04:46:49;97585.22;;;1.18;100.00
46267;BME280;31998;48.798;15.066;2023-02-13T04:49:14;97605.97;;;1.29;100.00
46267;BME280;31998;48.798;15.066;2023-02-13T04:51:40;97647.50;;;1.52;100.00
46267;BME280;31998;48.798;15.066;2023-02-13T04:54:05;97593.63;;;1.22;100.00
46267;BME280;31998;48.798;15.066;2023-02-13T04:56:31;97667.50;;;1.69;100.00
46267;BME280;31998;48.798;15.066;2023-02-13T04:58:56;97644.56;;;1.47;100.00
46267;BME280;31998;48.798;15.066;2023-02-13T05:01:22;97645.03;;;1.50;100.00
46267;BME280;31998;48.798;15.066;2023-02-13T05:03:47;97654.81;;;1.50;100.00
46267;BME280;31998;48.798;15.066;2023-02-13T05:06:13;97547.09;;;0.90;100.00
46267;BME280;31998;48.798;15.066;2023-02-13T05:08:39;97650.06;;;1.60;100.00
46267;BME280;31998;48.798;15.066;2023-02-13T05:11:05;97655.00;;;1.63;100.00
46267;BME280;31998;48.798;15.066;2023-02-13T05:13:30;97634.34;;;1.44;100.00
46267;BME280;31998;48.798;15.066;2023-02-13T05:15:56;97675.84;;;1.66;100.00
46267;BME280;31998;48.798;15.066;2023-02-13T05:18:21;97544.91;;;0.78;100.00
46267;BME280;31998;48.798;15.066;2023-02-13T05:20:47;97620.72;;;1.32;100.00
46267;BME280;31998;48.798;15.066;2023-02-13T05:23:32;97644.19;;;1.50;100.00
46267;BME280;31998;48.798;15.066;2023-02-13T05:25:58;97686.38;;;1.74;100.00
46267;BME280;31998;48.798;15.066;2023-02-13T05:28:23;97666.78;;;1.60;100.00
46267;BME280;31998;48.798;15.066;2023-02-13T05:31:07;97670.47;;;1.59;100.00
46267;BME280;31998;48.798;15.066;2023-02-13T05:33:33;97648.25;;;1.46;100.00
46267;BME280;31998;48.798;15.066;2023-02-13T05:35:58;97658.13;;;1.52;100.00
46267;BME280;31998;48.798;15.066;2023-02-13T05:38:24;97554.75;;;0.85;100.00
46267;BME280;31998;48.798;15.066;2023-02-13T05:40:49;97638.34;;;1.40;100.00
46267;BME280;31998;48.798;15.066;2023-02-13T05:43:15;97570.88;;;0.98;100.00
46267;BME280;31998;48.798;15.066;2023-02-13T05:45:40;97707.59;;;1.74;100.00
46267;BME280;31998;48.798;15.066;2023-02-13T05:48:06;97609.66;;;1.14;100.00
46267;BME280;31998;48.798;15.066;2023-02-13T05:50:31;97584.78;;;1.00;100.00
46267;BME280;31998;48.798;15.066;2023-02-13T05:52:57;97691.78;;;1.66;100.00
46267;BME280;31998;48.798;15.066;2023-02-13T05:55:22;97579.81;;;0.97;100.00
46267;BME280;31998;48.798;15.066;2023-02-13T05:57:48;97601.22;;;1.10;100.00
46267;BME280;31998;48.798;15.066;2023-02-13T06:00:14;97641.13;;;1.31;100.00
46267;BME280;31998;48.798;15.066;2023-02-13T06:02:40;97697.09;;;1.66;100.00
46267;BME280;31998;48.798;15.066;2023-02-13T06:05:05;97580.81;;;0.96;100.00
46267;BME280;31998;48.798;15.066;2023-02-13T06:07:31;97694.81;;;1.63;100.00
46267;BME280;31998;48.798;15.066;2023-02-13T06:09:56;97639.53;;;1.22;100.00
46267;BME280;31998;48.798;15.066;2023-02-13T06:12:24;97668.84;;;1.44;100.00
46267;BME280;31998;48.798;15.066;2023-02-13T06:14:49;97611.72;;;1.03;100.00
46267;BME280;31998;48.798;15.066;2023-02-13T06:17:14;97676.59;;;1.45;100.00
46267;BME280;31998;48.798;15.066;2023-02-13T06:19:40;97653.38;;;1.32;100.00
46267;BME280;31998;48.798;15.066;2023-02-13T06:22:05;97676.41;;;1.47;100.00
46267;BME280;31998;48.798;15.066;2023-02-13T06:24:31;97584.94;;;0.84;100.00
46267;BME280;31998;48.798;15.066;2023-02-13T06:26:56;97616.22;;;1.03;100.00
46267;BME280;31998;48.798;15.066;2023-02-13T06:29:22;97715.56;;;1.59;100.00
46267;BME280;31998;48.798;15.066;2023-02-13T06:31:48;97687.41;;;1.44;100.00
46267;BME280;31998;48.798;15.066;2023-02-13T06:34:13;97608.06;;;0.90;100.00
46267;BME280;31998;48.798;15.066;2023-02-13T06:36:39;97645.13;;;1.13;100.00
46267;BME280;31998;48.798;15.066;2023-02-13T06:39:06;97724.84;;;1.63;100.00
46267;BME280;31998;48.798;15.066;2023-02-13T06:41:31;97722.34;;;1.62;100.00
46267;BME280;31998;48.798;15.066;2023-02-13T06:43:56;97724.66;;;1.65;100.00
46267;BME280;31998;48.798;15.066;2023-02-13T06:46:22;97717.41;;;1.59;100.00
46267;BME280;31998;48.798;15.066;2023-02-13T06:48:47;97740.47;;;1.73;100.00
46267;BME280;31998;48.798;15.066;2023-02-13T06:51:13;97738.81;;;1.72;100.00
46267;BME280;31998;48.798;15.066;2023-02-13T06:53:38;97731.13;;;1.62;100.00
46267;BME280;31998;48.798;15.066;2023-02-13T06:56:04;97725.66;;;1.64;100.00
46267;BME280;31998;48.798;15.066;2023-02-13T06:58:31;97745.59;;;1.75;100.00
46267;BME280;31998;48.798;15.066;2023-02-13T07:00:58;97747.50;;;1.81;100.00
46267;BME280;31998;48.798;15.066;2023-02-13T07:03:23;97746.69;;;1.80;100.00
46267;BME280;31998;48.798;15.066;2023-02-13T07:05:49;97734.44;;;1.79;100.00
46267;BME280;31998;48.798;15.066;2023-02-13T07:08:16;97718.31;;;1.66;100.00
46267;BME280;31998;48.798;15.066;2023-02-13T07:10:42;97698.19;;;1.57;100.00
46267;BME280;31998;48.798;15.066;2023-02-13T07:13:09;97715.94;;;1.71;100.00
46267;BME280;31998;48.798;15.066;2023-02-13T07:15:35;97680.34;;;1.51;100.00
46267;BME280;31998;48.798;15.066;2023-02-13T07:18:02;97654.38;;;1.31;100.00
46267;BME280;31998;48.798;15.066;2023-02-13T07:20:28;97749.25;;;1.88;100.00
46267;BME280;31998;48.798;15.066;2023-02-13T07:23:02;97625.47;;;1.07;100.00
46267;BME280;31998;48.798;15.066;2023-02-13T07:25:28;97771.88;;;1.99;100.00
46267;BME280;31998;48.798;15.066;2023-02-13T07:27:54;97764.38;;;2.03;100.00
46267;BME280;31998;48.798;15.066;2023-02-13T07:30:19;97646.47;;;1.23;100.00
46267;BME280;31998;48.798;15.066;2023-02-13T07:32:45;97630.75;;;1.22;100.00
46267;BME280;31998;48.798;15.066;2023-02-13T07:35:11;97686.94;;;1.55;100.00
46267;BME280;31998;48.798;15.066;2023-02-13T07:37:36;97632.16;;;1.32;100.00
46267;BME280;31998;48.798;15.066;2023-02-13T07:40:02;97649.41;;;1.43;100.00
46267;BME280;31998;48.798;15.066;2023-02-13T07:42:32;97766.19;;;2.17;100.00
46267;BME280;31998;48.798;15.066;2023-02-13T07:44:57;97664.69;;;1.56;100.00
46267;BME280;31998;48.798;15.066;2023-02-13T07:47:23;97701.22;;;1.83;100.00
46267;BME280;31998;48.798;15.066;2023-02-13T07:49:49;97675.94;;;1.73;100.00
46267;BME280;31998;48.798;15.066;2023-02-13T07:52:14;97704.28;;;2.02;100.00
46267;BME280;31998;48.798;15.066;2023-02-13T07:54:40;97671.63;;;1.86;100.00
46267;BME280;31998;48.798;15.066;2023-02-13T07:57:13;97678.22;;;1.90;100.00
46267;BME280;31998;48.798;15.066;2023-02-13T07:59:38;97741.97;;;2.27;100.00
46267;BME280;31998;48.798;15.066;2023-02-13T08:02:04;97702.28;;;2.04;100.00
46267;BME280;31998;48.798;15.066;2023-02-13T08:04:29;97740.88;;;2.36;100.00
46267;BME280;31998;48.798;15.066;2023-02-13T08:06:55;97717.63;;;2.23;100.00
46267;BME280;31998;48.798;15.066;2023-02-13T08:09:20;97721.44;;;2.35;100.00
46267;BME280;31998;48.798;15.066;2023-02-13T08:12:06;97736.00;;;2.39;100.00
46267;BME280;31998;48.798;15.066;2023-02-13T08:14:32;97683.03;;;2.16;100.00
46267;BME280;31998;48.798;15.066;2023-02-13T08:16:58;97743.56;;;2.57;100.00
46267;BME280;31998;48.798;15.066;2023-02-13T08:19:25;97709.41;;;2.39;100.00
46267;BME280;31998;48.798;15.066;2023-02-13T08:21:50;97623.56;;;1.96;100.00
46267;BME280;31998;48.798;15.066;2023-02-13T08:24:16;97675.53;;;2.41;100.00
46267;BME280;31998;48.798;15.066;2023-02-13T08:26:41;97641.28;;;2.32;100.00
46267;BME280;31998;48.798;15.066;2023-02-13T08:29:07;97640.72;;;2.36;100.00
46267;BME280;31998;48.798;15.066;2023-02-13T08:31:34;97714.38;;;2.85;100.00
46267;BME280;31998;48.798;15.066;2023-02-13T08:34:00;97683.81;;;2.75;100.00
46267;BME280;31998;48.798;15.066;2023-02-13T08:36:25;97680.56;;;2.79;100.00
46267;BME280;31998;48.798;15.066;2023-02-13T08:38:51;97644.38;;;2.57;100.00
46267;BME280;31998;48.798;15.066;2023-02-13T08:41:17;97688.84;;;2.91;100.00
46267;BME280;31998;48.798;15.066;2023-02-13T08:43:43;97709.69;;;3.09;100.00
46267;BME280;31998;48.798;15.066;2023-02-13T08:46:09;97643.47;;;2.71;100.00
46267;BME280;31998;48.798;15.066;2023-02-13T08:48:34;97648.34;;;2.89;100.00
46267;BME280;31998;48.798;15.066;2023-02-13T08:51:08;97696.31;;;3.30;100.00
46267;BME280;31998;48.798;15.066;2023-02-13T08:53:35;97650.13;;;3.10;100.00
46267;BME280;31998;48.798;15.066;2023-02-13T08:56:01;97695.63;;;3.49;100.00
46267;BME280;31998;48.798;15.066;2023-02-13T08:58:26;97726.72;;;3.77;100.00
46267;BME280;31998;48.798;15.066;2023-02-13T09:00:52;97670.03;;;3.48;100.00
46267;BME280;31998;48.798;15.066;2023-02-13T09:03:18;97631.06;;;3.34;100.00
46267;BME280;31998;48.798;15.066;2023-02-13T09:05:43;97678.09;;;3.62;100.00
46267;BME280;31998;48.798;15.066;2023-02-13T09:08:09;97620.66;;;3.39;100.00
46267;BME280;31998;48.798;15.066;2023-02-13T09:10:38;97620.25;;;3.42;100.00
46267;BME280;31998;48.798;15.066;2023-02-13T09:13:04;97743.34;;;4.20;100.00
46267;BME280;31998;48.798;15.066;2023-02-13T09:15:30;97622.34;;;3.53;100.00
46267;BME280;31998;48.798;15.066;2023-02-13T09:17:56;97606.38;;;3.53;100.00
46267;BME280;31998;48.798;15.066;2023-02-13T09:20:25;97665.53;;;3.90;100.00
46267;BME280;31998;48.798;15.066;2023-02-13T09:22:50;97623.28;;;3.74;100.00
46267;BME280;31998;48.798;15.066;2023-02-13T09:25:16;97605.00;;;3.71;100.00
46267;BME280;31998;48.798;15.066;2023-02-13T09:27:44;97606.06;;;3.76;100.00
46267;BME280;31998;48.798;15.066;2023-02-13T09:30:09;97670.16;;;4.29;100.00
46267;BME280;31998;48.798;15.066;2023-02-13T09:32:35;97669.38;;;4.35;100.00
46267;BME280;31998;48.798;15.066;2023-02-13T09:35:04;97659.97;;;4.40;100.00
46267;BME280;31998;48.798;15.066;2023-02-13T09:37:33;97698.16;;;4.73;100.00
46267;BME280;31998;48.798;15.066;2023-02-13T09:39:58;97678.06;;;4.57;100.00
46267;BME280;31998;48.798;15.066;2023-02-13T09:42:27;97701.06;;;4.78;100.00
46267;BME280;31998;48.798;15.066;2023-02-13T09:44:57;97662.88;;;4.58;100.00
46267;BME280;31998;48.798;15.066;2023-02-13T09:47:40;97614.81;;;4.25;100.00
46267;BME280;31998;48.798;15.066;2023-02-13T09:52:34;97589.38;;;4.16;100.00
46267;BME280;31998;48.798;15.066;2023-02-13T09:55:01;97699.66;;;4.89;100.00
46267;BME280;31998;48.798;15.066;2023-02-13T09:57:35;97677.25;;;4.77;100.00
46267;BME280;31998;48.798;15.066;2023-02-13T10:00:35;97720.78;;;5.10;100.00
46267;BME280;31998;48.798;15.066;2023-02-13T10:09:00;97598.06;;;4.57;100.00
46267;BME280;31998;48.798;15.066;2023-02-13T10:12:23;97635.78;;;4.87;100.00
46267;BME280;31998;48.798;15.066;2023-02-13T10:15:02;97598.06;;;4.71;100.00
46267;BME280;31998;48.798;15.066;2023-02-13T10:17:34;97704.16;;;5.35;100.00
46267;BME280;31998;48.798;15.066;2023-02-13T10:20:23;97702.09;;;5.37;100.00
46267;BME280;31998;48.798;15.066;2023-02-13T10:23:11;97655.50;;;5.13;100.00
46267;BME280;31998;48.798;15.066;2023-02-13T10:28:27;97645.63;;;5.13;100.00
46267;BME280;31998;48.798;15.066;2023-02-13T10:30:58;97692.63;;;5.54;100.00
46267;BME280;31998;48.798;15.066;2023-02-13T10:33:49;97686.03;;;5.63;100.00
46267;BME280;31998;48.798;15.066;2023-02-13T10:36:21;97680.94;;;5.55;100.00
46267;BME280;31998;48.798;15.066;2023-02-13T10:39:00;97680.25;;;5.66;100.00
46267;BME280;31998;48.798;15.066;2023-02-13T10:58:19;97666.84;;;5.93;100.00
46267;BME280;31998;48.798;15.066;2023-02-13T11:01:10;97657.81;;;5.87;100.00
46267;BME280;31998;48.798;15.066;2023-02-13T11:03:37;97641.19;;;5.79;100.00
46267;BME280;31998;48.798;15.066;2023-02-13T11:06:10;97656.38;;;5.85;100.00
46267;BME280;31998;48.798;15.066;2023-02-13T11:08:40;97649.00;;;5.73;100.00
46267;BME280;31998;48.798;15.066;2023-02-13T11:11:30;97659.50;;;5.75;100.00
46267;BME280;31998;48.798;15.066;2023-02-13T11:14:12;97607.81;;;5.43;100.00
46267;BME280;31998;48.798;15.066;2023-02-13T11:17:01;97575.63;;;5.25;100.00
46267;BME280;31998;48.798;15.066;2023-02-13T11:22:14;97607.78;;;5.50;100.00
46267;BME280;31998;48.798;15.066;2023-02-13T11:24:52;97619.28;;;5.57;100.00
46267;BME280;31998;48.798;15.066;2023-02-13T11:27:24;97570.03;;;5.33;100.00
46267;BME280;31998;48.798;15.066;2023-02-13T11:29:55;97584.78;;;5.55;100.00
46267;BME280;31998;48.798;15.066;2023-02-13T11:32:26;97534.28;;;5.34;100.00
46267;BME280;31998;48.798;15.066;2023-02-13T11:34:52;97611.97;;;5.90;100.00
46267;BME280;31998;48.798;15.066;2023-02-13T11:37:21;97649.47;;;6.22;100.00
46267;BME280;31998;48.798;15.066;2023-02-13T11:39:50;97655.03;;;6.20;100.00
46267;BME280;31998;48.798;15.066;2023-02-13T11:42:33;97656.41;;;6.30;100.00
46267;BME280;31998;48.798;15.066;2023-02-13T11:45:23;97646.13;;;6.33;100.00
46267;BME280;31998;48.798;15.066;2023-02-13T11:47:49;97645.31;;;6.33;100.00
46267;BME280;31998;48.798;15.066;2023-02-13T11:50:29;97650.59;;;6.46;100.00
46267;BME280;31998;48.798;15.066;2023-02-13T11:53:00;97577.94;;;6.11;100.00
46267;BME280;31998;48.798;15.066;2023-02-13T11:55:38;97634.53;;;6.46;100.00
46267;BME280;31998;48.798;15.066;2023-02-13T12:00:39;97589.13;;;6.01;100.00
46267;BME280;31998;48.798;15.066;2023-02-13T12:06:11;97652.03;;;6.42;100.00
46267;BME280;31998;48.798;15.066;2023-02-13T12:08:39;97634.22;;;6.29;100.00
46267;BME280;31998;48.798;15.066;2023-02-13T12:11:23;97644.44;;;6.39;100.00
46267;BME280;31998;48.798;15.066;2023-02-13T12:13:51;97586.03;;;5.97;100.00
46267;BME280;31998;48.798;15.066;2023-02-13T12:18:53;97521.88;;;5.59;100.00
46267;BME280;31998;48.798;15.066;2023-02-13T12:26:45;97592.88;;;5.87;100.00
46267;BME280;31998;48.798;15.066;2023-02-13T12:37:36;97626.94;;;6.43;100.00
46267;BME280;31998;48.798;15.066;2023-02-13T12:40:30;97633.09;;;6.43;100.00
46267;BME280;31998;48.798;15.066;2023-02-13T12:45:52;97627.97;;;6.42;100.00
46267;BME280;31998;48.798;15.066;2023-02-13T12:48:30;97630.91;;;6.34;100.00
46267;BME280;31998;48.798;15.066;2023-02-13T12:54:12;97622.09;;;6.27;100.00
46267;BME280;31998;48.798;15.066;2023-02-13T12:57:32;97619.47;;;6.20;100.00
46267;BME280;31998;48.798;15.066;2023-02-13T13:14:07;97516.19;;;5.49;100.00
46267;BME280;31998;48.798;15.066;2023-02-13T13:16:51;97608.00;;;6.06;100.00
46267;BME280;31998;48.798;15.066;2023-02-13T13:22:18;97560.38;;;5.90;100.00
46267;BME280;31998;48.798;15.066;2023-02-13T13:24:59;97607.31;;;6.17;100.00
46267;BME280;31998;48.798;15.066;2023-02-13T13:27:35;97592.41;;;6.03;100.00
46267;BME280;31998;48.798;15.066;2023-02-13T13:32:28;97610.84;;;6.11;100.00
46267;BME280;31998;48.798;15.066;2023-02-13T13:34:56;97589.50;;;6.05;100.00
46267;BME280;31998;48.798;15.066;2023-02-13T13:37:36;97607.50;;;6.22;100.00
46267;BME280;31998;48.798;15.066;2023-02-13T13:42:56;97598.44;;;6.23;100.00
46267;BME280;31998;48.798;15.066;2023-02-13T13:45:36;97603.72;;;6.37;100.00
46267;BME280;31998;48.798;15.066;2023-02-13T13:51:15;97597.19;;;6.33;100.00
46267;BME280;31998;48.798;15.066;2023-02-13T13:56:33;97604.59;;;6.24;100.00
46267;BME280;31998;48.798;15.066;2023-02-13T14:05:00;97607.06;;;5.94;100.00
46267;BME280;31998;48.798;15.066;2023-02-13T14:07:34;97580.09;;;5.89;100.00
46267;BME280;31998;48.798;15.066;2023-02-13T14:09:59;97584.19;;;5.98;100.00
46267;BME280;31998;48.798;15.066;2023-02-13T14:14:55;97575.38;;;5.91;100.00
46267;BME280;31998;48.798;15.066;2023-02-13T14:18:21;97589.91;;;6.08;100.00
46267;BME280;31998;48.798;15.066;2023-02-13T14:31:34;97566.56;;;5.84;100.00
46267;BME280;31998;48.798;15.066;2023-02-13T14:36:38;97581.75;;;5.90;100.00
46267;BME280;31998;48.798;15.066;2023-02-13T14:39:05;97597.16;;;6.01;100.00
46267;BME280;31998;48.798;15.066;2023-02-13T14:44:22;97536.63;;;5.68;100.00
46267;BME280;31998;48.798;15.066;2023-02-13T14:46:50;97573.94;;;5.88;100.00
46267;BME280;31998;48.798;15.066;2023-02-13T14:51:55;97573.94;;;5.88;100.00
46267;BME280;31998;48.798;15.066;2023-02-13T14:54:42;97568.81;;;5.80;100.00
46267;BME280;31998;48.798;15.066;2023-02-13T14:57:26;97592.88;;;5.87;100.00
46267;BME280;31998;48.798;15.066;2023-02-13T14:59:59;97578.91;;;5.78;100.00
46267;BME280;31998;48.798;15.066;2023-02-13T15:02:40;97573.59;;;5.71;100.00
46267;BME280;31998;48.798;15.066;2023-02-13T15:05:14;97580.63;;;5.59;100.00
46267;BME280;31998;48.798;15.066;2023-02-13T15:07:47;97553.41;;;5.31;100.00
46267;BME280;31998;48.798;15.066;2023-02-13T15:10:49;97608.19;;;5.47;100.00
46267;BME280;31998;48.798;15.066;2023-02-13T15:13:24;97553.66;;;5.23;100.00
46267;BME280;31998;48.798;15.066;2023-02-13T15:15:53;97586.44;;;5.43;100.00
46267;BME280;31998;48.798;15.066;2023-02-13T15:18:26;97587.47;;;5.49;100.00
46267;BME280;31998;48.798;15.066;2023-02-13T15:20:54;97581.06;;;5.56;100.00
46267;BME280;31998;48.798;15.066;2023-02-13T15:23:24;97595.63;;;5.60;100.00
46267;BME280;31998;48.798;15.066;2023-02-13T15:28:26;97582.50;;;5.52;100.00
46267;BME280;31998;48.798;15.066;2023-02-13T15:31:06;97579.84;;;5.52;100.00